»·PEaware :: UAL1616 KSNA-KSFO

UAL1616 :: KSNA-KSFO

FLIGHT INFORMATION

Flight Status: Arrived
Operator:
United Airlines
More flights by this operator :: More flights under this callsign
Pilot: Tyler B. (19112)
Aircraft: BOEING 737-800
(B738)
More flights by this aircraft type
Origin: KSNA John Wayne-Orange Co
United States
Destination: KSFO San Francisco Intl
United States
More flights between these airports :: More routes between these airports
Route: +HHERO2 IKAYE RIZIN SPLNT STOKD SERFR SERFR3
File this flight plan on PilotEdge
Remarks:
Altitude:
(Current/Filed)
39,000ft
Speed:
(Current/Filed)
457kts
Departed: 06-May-18 01:22 PM
Arrived: 06-May-18 02:26 PM
Distance/Time
Traveled:
323nm/1:04
Distance/Time
To Go:
Arrived

Flight Plot

Page will automatically refresh every two minutes.

Flight plan parsing failed; only flown route is shown


Map Options




Map Legend


Flown Route
Filed Route
Departure Airport
Arrival Airport
Navaid (VOR, NDB)
Fix

Horizontal Profiles

Position Reports

Time Latitude Longitude Heading Altitude Ground
Speed
06-May-18 12:55 33.678709 -117.862853 99 49ft 0kts
06-May-18 12:56 33.678709 -117.862853 99 49ft 0kts
06-May-18 12:57 33.678709 -117.862853 99 49ft 0kts
06-May-18 12:58 33.678709 -117.862853 99 49ft 0kts
06-May-18 12:59 33.678709 -117.862853 99 49ft 0kts
06-May-18 13:00 33.678709 -117.862853 99 49ft 0kts
06-May-18 13:01 33.678709 -117.862853 99 49ft 0kts
06-May-18 13:02 33.678709 -117.862853 99 49ft 0kts
06-May-18 13:03 33.678709 -117.862853 99 49ft 0kts
06-May-18 13:04 33.678709 -117.862853 99 49ft 0kts
06-May-18 13:05 33.678709 -117.862853 99 49ft 0kts
06-May-18 13:06 33.678709 -117.862853 99 49ft 0kts
06-May-18 13:07 33.678709 -117.862854 99 49ft 0kts
06-May-18 13:08 33.678749 -117.863139 99 46ft 0kts
06-May-18 13:09 33.678553 -117.863670 28 44ft 0kts
06-May-18 13:10 33.678501 -117.863700 26 44ft 0kts
06-May-18 13:11 33.678501 -117.863700 26 44ft 0kts
06-May-18 13:12 33.678742 -117.863553 27 44ft 0kts
06-May-18 13:13 33.678802 -117.863516 27 44ft 2kts
06-May-18 13:14 33.679156 -117.863300 27 44ft 0kts
06-May-18 13:15 33.679201 -117.863272 27 44ft 0kts
06-May-18 13:16 33.679255 -117.863239 27 45ft 0kts
06-May-18 13:17 33.679301 -117.863211 27 45ft 0kts
06-May-18 13:18 33.679363 -117.863173 26 46ft 0kts
06-May-18 13:19 33.680665 -117.863086 298 47ft 0kts
06-May-18 13:20 33.680665 -117.863086 298 47ft 0kts
06-May-18 13:21 33.680670 -117.863098 298 46ft 0kts
06-May-18 13:22 33.675314 -117.869068 208 54ft 119kts
06-May-18 13:23 33.633585 -117.892769 188 1880ft 210kts
06-May-18 13:24 33.567135 -117.907452 213 4583ft 268kts
06-May-18 13:25 33.510621 -117.967899 224 7539ft 276kts
06-May-18 13:26 33.460546 -118.037713 239 9974ft 281kts
06-May-18 13:27 33.421675 -118.118548 240 10008ft 282kts
06-May-18 13:28 33.418306 -118.208551 283 10024ft 285kts
06-May-18 13:29 33.437767 -118.300697 282 10039ft 286kts
06-May-18 13:30 33.474299 -118.386035 296 10038ft 289kts
06-May-18 13:31 33.513474 -118.473579 296 11157ft 317kts
06-May-18 13:32 33.582030 -118.543128 324 14254ft 339kts
06-May-18 13:33 33.661499 -118.607432 323 15992ft 346kts
06-May-18 13:34 33.739244 -118.671838 322 15974ft 346kts
06-May-18 13:35 33.818134 -118.737590 322 15964ft 345kts
06-May-18 13:36 33.896745 -118.803404 322 15964ft 345kts
06-May-18 13:37 33.975975 -118.869957 322 17687ft 352kts
06-May-18 13:38 34.057056 -118.938280 321 20353ft 363kts
06-May-18 13:39 34.139242 -119.008902 313 22698ft 372kts
06-May-18 13:40 34.196675 -119.111628 298 24871ft 375kts
06-May-18 13:41 34.251928 -119.219807 298 26853ft 384kts
06-May-18 13:42 34.308529 -119.330436 298 28654ft 393kts
06-May-18 13:43 34.366242 -119.443022 298 30559ft 393kts
06-May-18 13:44 34.426584 -119.551422 309 32470ft 392kts
06-May-18 13:45 34.502083 -119.644662 310 34145ft 386kts
06-May-18 13:46 34.576481 -119.736448 309 35557ft 383kts
06-May-18 13:47 34.650740 -119.828515 309 36729ft 381kts
06-May-18 13:48 34.724523 -119.920209 309 37707ft 381kts
06-May-18 13:49 34.798438 -120.012119 309 38514ft 381kts
06-May-18 13:50 34.872274 -120.103925 309 39107ft 385kts
06-May-18 13:51 34.949136 -120.199515 309 39121ft 406kts
06-May-18 13:52 35.030205 -120.300232 309 39126ft 429kts
06-May-18 13:53 35.116045 -120.404196 312 39110ft 449kts
06-May-18 13:54 35.208099 -120.507347 312 39085ft 449kts
06-May-18 13:55 35.299835 -120.610322 312 39082ft 449kts
06-May-18 13:56 35.391183 -120.713079 312 39091ft 449kts
06-May-18 13:57 35.483062 -120.816469 313 39087ft 449kts
06-May-18 13:58 35.582241 -120.910056 317 39084ft 453kts
06-May-18 13:59 35.681444 -121.002310 317 39083ft 453kts
06-May-18 14:00 35.781619 -121.095755 317 39080ft 453kts
06-May-18 14:01 35.880976 -121.188641 317 39051ft 432kts
06-May-18 14:02 35.976287 -121.278054 317 36606ft 435kts
06-May-18 14:03 36.071382 -121.367464 318 33737ft 433kts
06-May-18 14:03 36.151257 -121.430769 322 31819ft 442kts
06-May-18 14:05 36.272116 -121.524861 323 28496ft 434kts
06-May-18 14:06 36.372058 -121.603032 323 25953ft 429kts
06-May-18 14:07 36.468272 -121.678489 323 23576ft 400kts
06-May-18 14:08 36.563190 -121.753404 323 21221ft 409kts
06-May-18 14:08 36.643037 -121.816602 324 19288ft 411kts
06-May-18 14:09 36.738920 -121.892096 328 16963ft 412kts
06-May-18 14:10 36.849428 -121.927232 344 14533ft 403kts
06-May-18 14:11 36.947031 -121.954212 344 12402ft 334kts
06-May-18 14:12 37.037247 -121.988414 340 10664ft 327kts
06-May-18 14:13 37.118075 -122.019755 340 10018ft 297kts
06-May-18 14:14 37.192526 -122.048794 339 8731ft 272kts
06-May-18 14:15 37.262155 -122.076071 339 7523ft 263kts
06-May-18 14:16 37.327014 -122.101415 339 6391ft 219kts
06-May-18 14:17 37.380586 -122.122253 339 5990ft 195kts
06-May-18 14:18 37.434449 -122.143493 340 4542ft 204kts
06-May-18 14:19 37.485606 -122.161362 345 3974ft 194kts
06-May-18 14:20 37.536708 -122.181129 309 3091ft 190kts
06-May-18 14:21 37.561178 -122.233348 298 2195ft 162kts
06-May-18 14:22 37.580984 -122.279849 296 1383ft 144kts
06-May-18 14:23 37.599243 -122.323234 295 891ft 137kts
06-May-18 14:24 37.616733 -122.364959 294 12ft 120kts
06-May-18 14:25 37.621415 -122.376160 290 23ft 26kts
06-May-18 14:26 37.621824 -122.382927 210 30ft 17kts
06-May-18 14:27 37.619153 -122.383392 292 31ft 5kts
06-May-18 14:28 37.619195 -122.383523 291 31ft 0kts
06-May-18 14:29 37.619195 -122.383523 291 31ft 0kts
06-May-18 14:30 37.619195 -122.383523 291 31ft 0kts
06-May-18 14:31 37.619195 -122.383523 291 31ft 0kts

Navigation Log

Ident Type
Flight plan parsing failed, navigation log unavailable